Time;durP1;ratioP1;P1;durP2;ratioP2;P2;SDS_P1;SDS_P2;PMS_P1;PMS_P2;Temp;Humidity;BMP_temperature;BMP_pressure;BME280_temperature;BME280_humidity;BME280_pressure;Samples;Min_cycle;Max_cycle;Signal;HPM_P1;HPM_P2
2022/11/30 00:00:36;;;;;;;24.60;15.00;;;;;;;;;;5022817;28;20102;-75
2022/11/30 00:03:03;;;;;;;22.67;14.32;;;;;;;;;;5024797;28;20037;-74
2022/11/30 00:05:29;;;;;;;21.40;13.35;;;;;;;;;;5024094;28;20021;-75
2022/11/30 00:07:55;;;;;;;25.60;15.48;;;;;;;;;;5018008;28;20041;-75
2022/11/30 00:10:21;;;;;;;23.88;14.70;;;;;;;;;;5029056;28;20026;-75
2022/11/30 00:12:48;;;;;;;20.90;13.45;;;;;;;;;;5027115;28;20041;-75
2022/11/30 00:15:16;;;;;;;22.70;13.77;;;;;;;;;;5028687;28;20057;-74
2022/11/30 00:17:43;;;;;;;20.02;13.18;;;;;;;;;;5019522;28;20037;-75
2022/11/30 00:20:12;;;;;;;21.30;14.73;;;;;;;;;;5020937;28;20029;-76
2022/11/30 00:22:38;;;;;;;21.38;13.82;;;;;;;;;;5026657;28;20033;-75
2022/11/30 00:25:04;;;;;;;19.23;13.05;;;;;;;;;;5046239;28;20399;-74
2022/11/30 00:27:34;;;;;;;24.08;13.85;;;;;;;;;;5072719;28;20095;-74
2022/11/30 00:30:00;;;;;;;26.67;14.85;;;;;;;;;;5040831;28;20044;-77
2022/11/30 00:32:27;;;;;;;23.30;14.13;;;;;;;;;;5039653;28;20386;-76
2022/11/30 00:34:53;;;;;;;23.63;14.75;;;;;;;;;;5038509;28;20057;-76
2022/11/30 00:37:19;;;;;;;28.38;16.95;;;;;;;;;;5043203;28;20021;-74
2022/11/30 00:39:46;;;;;;;26.50;15.02;;;;;;;;;;5049154;28;20063;-76
2022/11/30 00:42:12;;;;;;;23.70;13.55;;;;;;;;;;5047626;28;20052;-76
2022/11/30 00:44:38;;;;;;;23.45;14.68;;;;;;;;;;5048801;28;20048;-76
2022/11/30 00:47:04;;;;;;;20.90;13.52;;;;;;;;;;5047969;28;20024;-76
2022/11/30 00:49:30;;;;;;;20.63;12.73;;;;;;;;;;5070231;28;20037;-75
2022/11/30 00:51:55;;;;;;;21.90;13.40;;;;;;;;;;5064584;28;20044;-76
2022/11/30 00:54:21;;;;;;;22.75;13.98;;;;;;;;;;5051884;28;20422;-76
2022/11/30 00:56:47;;;;;;;23.95;14.65;;;;;;;;;;5047619;28;20081;-77
2022/11/30 00:59:13;;;;;;;22.25;14.07;;;;;;;;;;5047710;28;20490;-77
2022/11/30 01:01:39;;;;;;;22.70;14.05;;;;;;;;;;5054396;28;20028;-77
2022/11/30 01:04:05;;;;;;;24.55;14.68;;;;;;;;;;5046978;28;20043;-76
2022/11/30 01:06:31;;;;;;;22.05;14.00;;;;;;;;;;5046946;28;20027;-76
2022/11/30 01:08:58;;;;;;;22.90;13.52;;;;;;;;;;5047696;28;20398;-77
2022/11/30 01:11:27;;;;;;;20.52;13.27;;;;;;;;;;5048083;28;20040;-76
2022/11/30 01:13:53;;;;;;;22.02;13.07;;;;;;;;;;5049040;28;20036;-76
2022/11/30 01:16:25;;;;;;;19.35;12.77;;;;;;;;;;5048322;28;20036;-76
2022/11/30 01:18:51;;;;;;;20.00;12.23;;;;;;;;;;5045451;28;20044;-77
2022/11/30 01:21:22;;;;;;;18.63;11.73;;;;;;;;;;5048765;28;20025;-77
2022/11/30 01:23:49;;;;;;;20.90;11.60;;;;;;;;;;5047278;28;20036;-77
2022/11/30 01:26:15;;;;;;;19.52;11.57;;;;;;;;;;5047189;28;20918;-77
2022/11/30 01:28:45;;;;;;;20.17;12.07;;;;;;;;;;5046671;28;20100;-76
2022/11/30 01:31:13;;;;;;;18.75;11.13;;;;;;;;;;5048047;28;20171;-77
2022/11/30 01:33:40;;;;;;;19.02;11.63;;;;;;;;;;5048378;28;20108;-77
2022/11/30 01:36:18;;;;;;;21.10;12.32;;;;;;;;;;5045193;28;20071;-76
2022/11/30 01:38:47;;;;;;;19.02;12.40;;;;;;;;;;5046700;28;20037;-77
2022/11/30 01:41:16;;;;;;;18.33;11.80;;;;;;;;;;5047361;28;20056;-77
2022/11/30 01:43:53;;;;;;;18.05;11.20;;;;;;;;;;5049496;28;20120;-77
2022/11/30 01:46:40;;;;;;;20.10;12.95;;;;;;;;;;5047373;28;20495;-76
2022/11/30 01:49:09;;;;;;;18.95;11.35;;;;;;;;;;5046181;28;20073;-76
2022/11/30 01:52:09;;;;;;;18.40;11.95;;;;;;;;;;5045531;28;20395;-76
2022/11/30 01:54:40;;;;;;;21.73;12.65;;;;;;;;;;5045777;28;20049;-75
2022/11/30 01:57:37;;;;;;;18.85;11.23;;;;;;;;;;5045666;28;20043;-76
2022/11/30 02:00:08;;;;;;;18.55;12.43;;;;;;;;;;5044656;28;20049;-77
2022/11/30 02:03:05;;;;;;;20.80;13.32;;;;;;;;;;5047384;28;20064;-77
2022/11/30 02:05:35;;;;;;;23.30;12.63;;;;;;;;;;5045870;28;20087;-78
2022/11/30 02:08:01;;;;;;;20.95;12.63;;;;;;;;;;5045828;28;20043;-77
2022/11/30 02:10:31;;;;;;;20.77;11.63;;;;;;;;;;5046481;28;20064;-75
2022/11/30 02:13:48;;;;;;;23.58;14.32;;;;;;;;;;5044321;28;20039;-76
2022/11/30 02:16:20;;;;;;;24.00;13.88;;;;;;;;;;5026509;28;20148;-77
2022/11/30 02:19:00;;;;;;;25.63;14.57;;;;;;;;;;5024928;28;20108;-78
2022/11/30 02:21:46;;;;;;;24.58;14.77;;;;;;;;;;5030662;28;20037;-76
2022/11/30 02:24:15;;;;;;;26.25;14.40;;;;;;;;;;5046554;28;20060;-76
2022/11/30 02:27:12;;;;;;;27.33;14.68;;;;;;;;;;5046944;28;20063;-78
2022/11/30 02:29:46;;;;;;;24.92;13.30;;;;;;;;;;5045126;28;20145;-77
2022/11/30 02:32:33;;;;;;;24.05;13.65;;;;;;;;;;5046233;28;20048;-76
2022/11/30 02:35:01;;;;;;;23.25;13.55;;;;;;;;;;5046315;28;20534;-77
2022/11/30 02:37:28;;;;;;;20.88;12.40;;;;;;;;;;5043655;28;20482;-76
2022/11/30 02:39:55;;;;;;;23.65;14.00;;;;;;;;;;5047086;28;20032;-77
2022/11/30 02:42:20;;;;;;;24.08;13.55;;;;;;;;;;5046782;28;20512;-77
2022/11/30 02:44:49;;;;;;;26.65;14.77;;;;;;;;;;5040409;28;20481;-78
2022/11/30 02:47:35;;;;;;;25.60;14.20;;;;;;;;;;5035596;28;20033;-77
2022/11/30 02:50:21;;;;;;;25.50;14.80;;;;;;;;;;5039993;28;20044;-76
2022/11/30 02:52:49;;;;;;;28.30;15.93;;;;;;;;;;5039373;28;20123;-77
2022/11/30 02:55:17;;;;;;;28.08;15.57;;;;;;;;;;5036609;28;20594;-76
2022/11/30 02:57:44;;;;;;;26.15;14.63;;;;;;;;;;5042799;28;20041;-78
2022/11/30 03:00:11;;;;;;;24.35;14.27;;;;;;;;;;5048473;28;20355;-77
2022/11/30 03:02:37;;;;;;;25.65;14.73;;;;;;;;;;5037921;28;20121;-76
2022/11/30 03:05:04;;;;;;;25.35;14.52;;;;;;;;;;5035898;28;20056;-77
2022/11/30 03:07:30;;;;;;;23.25;13.27;;;;;;;;;;5044128;28;20380;-76
2022/11/30 03:09:55;;;;;;;21.88;12.52;;;;;;;;;;5050818;28;20033;-75
2022/11/30 03:12:21;;;;;;;21.38;13.05;;;;;;;;;;5043386;28;20051;-77
2022/11/30 03:14:47;;;;;;;22.02;13.02;;;;;;;;;;5037211;28;20166;-76
2022/11/30 03:17:13;;;;;;;21.95;12.88;;;;;;;;;;5043687;28;20029;-75
2022/11/30 03:19:39;;;;;;;19.80;12.52;;;;;;;;;;5045216;28;20063;-77
2022/11/30 03:22:05;;;;;;;19.35;12.02;;;;;;;;;;5046240;28;20814;-76
2022/11/30 03:28:11;;;;;;;20.35;10.98;;;;;;;;;;5042399;28;20083;-76
2022/11/30 03:30:37;;;;;;;17.85;11.23;;;;;;;;;;5040901;28;20499;-76
2022/11/30 03:33:03;;;;;;;17.63;10.95;;;;;;;;;;5037204;28;20402;-77
2022/11/30 03:35:29;;;;;;;20.38;11.60;;;;;;;;;;5037173;28;20570;-75
2022/11/30 03:37:55;;;;;;;18.35;11.32;;;;;;;;;;5046512;28;20522;-76
2022/11/30 03:40:21;;;;;;;18.65;11.93;;;;;;;;;;5042199;28;20028;-77
2022/11/30 03:42:46;;;;;;;19.08;11.60;;;;;;;;;;5044319;28;20057;-77
2022/11/30 03:45:12;;;;;;;18.58;12.35;;;;;;;;;;5041833;28;20044;-76
2022/11/30 03:47:38;;;;;;;17.90;11.18;;;;;;;;;;5071369;28;20483;-76
2022/11/30 03:50:05;;;;;;;19.83;12.38;;;;;;;;;;5032127;28;20475;-75
2022/11/30 03:52:30;;;;;;;18.63;11.57;;;;;;;;;;5030566;28;20116;-76
2022/11/30 03:54:56;;;;;;;20.85;11.68;;;;;;;;;;5032549;28;20527;-77
2022/11/30 03:57:22;;;;;;;20.92;12.07;;;;;;;;;;5032943;28;20017;-77
2022/11/30 03:59:48;;;;;;;20.10;12.70;;;;;;;;;;5047935;28;20506;-77
2022/11/30 04:02:14;;;;;;;20.90;11.88;;;;;;;;;;5030860;28;20022;-77
2022/11/30 04:04:40;;;;;;;21.50;12.88;;;;;;;;;;5030892;28;20040;-77
2022/11/30 04:07:06;;;;;;;22.08;12.93;;;;;;;;;;5048158;28;20100;-77
2022/11/30 04:09:31;;;;;;;22.35;13.20;;;;;;;;;;5032254;28;20491;-76
2022/11/30 04:11:57;;;;;;;19.98;13.23;;;;;;;;;;5031120;28;20029;-76
2022/11/30 04:14:23;;;;;;;21.70;12.85;;;;;;;;;;5032189;28;20037;-77
2022/11/30 04:16:49;;;;;;;24.15;14.15;;;;;;;;;;5036463;28;20030;-77
2022/11/30 04:19:15;;;;;;;21.48;13.48;;;;;;;;;;5031905;28;20033;-76
2022/11/30 04:21:41;;;;;;;21.13;13.52;;;;;;;;;;5047155;28;20029;-77
2022/11/30 04:24:07;;;;;;;24.25;13.48;;;;;;;;;;5032249;28;20094;-76
2022/11/30 04:26:33;;;;;;;24.63;14.27;;;;;;;;;;5032191;28;20026;-77
2022/11/30 04:28:59;;;;;;;24.35;13.93;;;;;;;;;;5032192;28;20072;-77
2022/11/30 04:31:25;;;;;;;23.23;15.05;;;;;;;;;;5030907;28;20033;-76
2022/11/30 04:33:54;;;;;;;24.50;14.90;;;;;;;;;;5031936;28;20383;-78
2022/11/30 04:36:20;;;;;;;27.25;16.40;;;;;;;;;;5032570;28;20029;-76
2022/11/30 04:38:46;;;;;;;24.67;14.80;;;;;;;;;;5033138;28;20033;-77
2022/11/30 04:41:12;;;;;;;29.58;16.65;;;;;;;;;;5032410;28;20103;-76
2022/11/30 04:44:15;;;;;;;25.70;15.75;;;;;;;;;;5066236;28;20033;-77
2022/11/30 04:46:41;;;;;;;29.75;16.25;;;;;;;;;;5035350;28;20030;-77
2022/11/30 04:49:07;;;;;;;30.55;16.77;;;;;;;;;;5034470;28;20502;-76
2022/11/30 04:51:33;;;;;;;30.05;16.92;;;;;;;;;;5035777;28;20029;-77
2022/11/30 04:53:58;;;;;;;28.80;17.58;;;;;;;;;;5035349;28;20513;-75
2022/11/30 04:56:24;;;;;;;29.63;17.00;;;;;;;;;;5034905;28;20107;-77
2022/11/30 04:58:50;;;;;;;31.10;16.90;;;;;;;;;;5035450;28;20081;-77
2022/11/30 05:01:16;;;;;;;31.83;18.10;;;;;;;;;;5058056;28;20033;-77
2022/11/30 05:03:43;;;;;;;29.30;17.75;;;;;;;;;;5055362;28;20025;-77
2022/11/30 05:06:09;;;;;;;29.25;16.35;;;;;;;;;;5054165;28;20116;-78
2022/11/30 05:08:35;;;;;;;27.25;16.75;;;;;;;;;;5071517;28;20115;-76
2022/11/30 05:11:01;;;;;;;27.10;16.83;;;;;;;;;;5056820;28;20033;-79
2022/11/30 05:13:27;;;;;;;29.63;18.63;;;;;;;;;;5056475;28;20422;-78
2022/11/30 05:15:53;;;;;;;34.35;19.67;;;;;;;;;;5086761;28;20036;-76
2022/11/30 05:18:19;;;;;;;34.40;20.65;;;;;;;;;;5056464;28;20462;-76
2022/11/30 05:20:49;;;;;;;32.35;19.17;;;;;;;;;;5055408;28;20040;-75
2022/11/30 05:23:16;;;;;;;35.78;21.58;;;;;;;;;;5054020;28;20394;-77
2022/11/30 05:25:43;;;;;;;35.40;20.90;;;;;;;;;;5053309;28;20056;-75
2022/11/30 05:28:09;;;;;;;33.47;19.17;;;;;;;;;;5054549;28;20053;-76
2022/11/30 05:30:37;;;;;;;32.20;18.90;;;;;;;;;;5055033;28;20028;-77
2022/11/30 05:33:03;;;;;;;35.42;20.20;;;;;;;;;;5054851;28;20071;-77
2022/11/30 05:35:28;;;;;;;35.53;21.77;;;;;;;;;;5053076;28;20438;-76
2022/11/30 05:37:55;;;;;;;34.55;21.17;;;;;;;;;;5054438;28;20039;-77
2022/11/30 05:40:21;;;;;;;35.53;21.90;;;;;;;;;;5052962;28;20032;-77
2022/11/30 05:42:47;;;;;;;36.45;21.35;;;;;;;;;;5054563;28;20048;-77
2022/11/30 05:45:13;;;;;;;32.55;19.63;;;;;;;;;;5055430;28;20479;-78
2022/11/30 05:47:39;;;;;;;33.55;19.77;;;;;;;;;;5054396;28;20032;-78
2022/11/30 05:50:05;;;;;;;31.35;19.13;;;;;;;;;;5053251;28;20021;-77
2022/11/30 05:52:31;;;;;;;34.20;20.83;;;;;;;;;;5054396;28;20024;-76
2022/11/30 05:54:58;;;;;;;36.22;21.02;;;;;;;;;;5053285;28;20104;-77
2022/11/30 05:57:24;;;;;;;31.13;18.00;;;;;;;;;;5054139;28;20489;-76
2022/11/30 05:59:49;;;;;;;28.65;16.95;;;;;;;;;;5052848;28;20029;-77
2022/11/30 06:02:15;;;;;;;32.35;18.13;;;;;;;;;;5075391;28;20125;-77
2022/11/30 06:04:41;;;;;;;30.33;18.60;;;;;;;;;;5033596;28;20030;-78
2022/11/30 06:07:10;;;;;;;27.55;16.88;;;;;;;;;;5033529;28;20045;-78
2022/11/30 06:09:37;;;;;;;29.75;18.10;;;;;;;;;;5048486;28;20436;-77
2022/11/30 06:12:04;;;;;;;28.98;17.70;;;;;;;;;;5048688;28;20045;-77
2022/11/30 06:14:29;;;;;;;27.73;17.33;;;;;;;;;;5034105;28;20033;-77
2022/11/30 06:16:55;;;;;;;26.30;15.93;;;;;;;;;;5048518;28;20029;-78
2022/11/30 06:19:21;;;;;;;28.00;17.23;;;;;;;;;;5033752;28;20060;-77
2022/11/30 06:21:47;;;;;;;30.48;17.02;;;;;;;;;;5033538;28;20044;-77
2022/11/30 06:24:13;;;;;;;29.08;17.25;;;;;;;;;;5044784;28;20028;-76
2022/11/30 06:26:39;;;;;;;26.48;16.00;;;;;;;;;;5052500;28;20487;-76
2022/11/30 06:29:06;;;;;;;23.83;15.48;;;;;;;;;;5034785;28;20049;-78
2022/11/30 06:31:32;;;;;;;26.42;15.13;;;;;;;;;;5053771;28;20040;-76
2022/11/30 06:33:58;;;;;;;25.35;16.17;;;;;;;;;;5053577;28;20394;-77
2022/11/30 06:36:24;;;;;;;24.42;15.02;;;;;;;;;;5053747;28;20426;-78
2022/11/30 06:38:50;;;;;;;22.13;13.70;;;;;;;;;;5055042;28;20032;-78
2022/11/30 06:41:16;;;;;;;22.42;13.90;;;;;;;;;;5054295;28;20033;-76
2022/11/30 06:43:42;;;;;;;20.83;13.10;;;;;;;;;;5053162;28;20036;-77
2022/11/30 06:46:08;;;;;;;21.27;13.00;;;;;;;;;;5053069;28;20033;-76
2022/11/30 06:48:34;;;;;;;24.10;14.35;;;;;;;;;;5052872;28;20025;-77
2022/11/30 06:51:00;;;;;;;21.63;13.43;;;;;;;;;;5052514;28;20037;-78
2022/11/30 06:53:26;;;;;;;19.05;12.88;;;;;;;;;;5051657;28;20403;-78
2022/11/30 06:55:52;;;;;;;24.63;13.70;;;;;;;;;;5050689;28;20141;-75
2022/11/30 06:58:18;;;;;;;20.52;13.15;;;;;;;;;;5050768;28;20060;-78
2022/11/30 07:00:44;;;;;;;24.92;15.18;;;;;;;;;;5052856;28;20132;-76
2022/11/30 07:03:11;;;;;;;25.88;15.50;;;;;;;;;;5052695;28;20033;-77
2022/11/30 07:05:43;;;;;;;24.02;15.65;;;;;;;;;;5051273;28;20059;-77
2022/11/30 07:08:10;;;;;;;24.02;14.45;;;;;;;;;;5051019;28;20044;-77
2022/11/30 07:10:41;;;;;;;24.10;14.85;;;;;;;;;;5052083;28;20057;-77
2022/11/30 07:13:13;;;;;;;23.90;15.07;;;;;;;;;;5052754;28;20486;-77
2022/11/30 07:15:41;;;;;;;23.05;14.05;;;;;;;;;;5051091;28;20084;-77
2022/11/30 07:18:08;;;;;;;20.73;13.57;;;;;;;;;;5052358;28;20021;-77
2022/11/30 07:20:34;;;;;;;23.33;14.23;;;;;;;;;;5051495;28;20029;-77
2022/11/30 07:26:05;;;;;;;23.30;14.05;;;;;;;;;;5044588;28;20031;-72
2022/11/30 07:26:10;;;;;;;24.17;13.50;;;;;;;;;;5032521;28;20033;-71
2022/11/30 07:28:45;;;;;;;24.27;14.02;;;;;;;;;;5040192;28;20327;-74
2022/11/30 07:31:20;;;;;;;25.05;15.43;;;;;;;;;;5067076;28;20033;-74
2022/11/30 07:33:47;;;;;;;22.95;14.98;;;;;;;;;;5047221;28;20028;-73
2022/11/30 07:36:14;;;;;;;23.38;15.35;;;;;;;;;;5050216;28;20021;-74
2022/11/30 07:38:40;;;;;;;25.45;15.40;;;;;;;;;;5050174;28;20041;-73
2022/11/30 07:41:06;;;;;;;25.88;15.43;;;;;;;;;;5051552;28;20479;-73
2022/11/30 07:43:32;;;;;;;25.42;15.15;;;;;;;;;;5052484;28;20383;-73
2022/11/30 07:45:59;;;;;;;37.67;21.17;;;;;;;;;;5052378;28;20032;-73
2022/11/30 07:48:25;;;;;;;28.25;16.20;;;;;;;;;;5051537;28;20520;-72
2022/11/30 07:50:51;;;;;;;21.38;13.60;;;;;;;;;;5051399;28;20104;-74
2022/11/30 07:53:17;;;;;;;22.35;14.15;;;;;;;;;;5052066;28;20107;-77
2022/11/30 07:55:43;;;;;;;30.27;17.10;;;;;;;;;;5051320;28;20108;-76
2022/11/30 07:58:10;;;;;;;22.30;13.68;;;;;;;;;;5051268;28;20029;-76
2022/11/30 08:00:37;;;;;;;23.48;14.30;;;;;;;;;;5050919;28;20012;-75
2022/11/30 08:03:03;;;;;;;23.08;14.43;;;;;;;;;;5050973;28;20028;-72
2022/11/30 08:05:29;;;;;;;25.30;15.60;;;;;;;;;;5051083;28;20024;-74
2022/11/30 08:11:24;;;;;;;24.25;15.43;;;;;;;;;;5052472;28;20430;-73
2022/11/30 08:13:50;;;;;;;25.40;15.20;;;;;;;;;;5051424;28;20116;-73
2022/11/30 08:16:21;;;;;;;25.00;15.23;;;;;;;;;;5048458;28;20020;-74
2022/11/30 08:18:47;;;;;;;25.48;15.38;;;;;;;;;;5051183;28;20059;-73
2022/11/30 08:21:15;;;;;;;25.45;15.68;;;;;;;;;;5054741;28;20486;-74
2022/11/30 08:23:43;;;;;;;22.52;14.73;;;;;;;;;;5051001;28;20034;-73
2022/11/30 08:26:14;;;;;;;22.98;14.38;;;;;;;;;;5065018;28;20029;-73
2022/11/30 08:28:42;;;;;;;22.98;14.95;;;;;;;;;;5050029;28;20037;-72
2022/11/30 08:31:10;;;;;;;23.05;15.32;;;;;;;;;;5067190;28;20122;-73
2022/11/30 08:33:37;;;;;;;26.13;16.15;;;;;;;;;;5055157;28;20029;-71
2022/11/30 08:36:18;;;;;;;25.88;15.32;;;;;;;;;;5047602;28;20081;-72
2022/11/30 08:38:46;;;;;;;21.20;13.57;;;;;;;;;;5041961;28;20056;-73
2022/11/30 08:41:14;;;;;;;26.85;15.23;;;;;;;;;;5045947;28;20036;-71
2022/11/30 08:43:41;;;;;;;26.85;14.90;;;;;;;;;;5041833;28;20029;-71
2022/11/30 08:46:10;;;;;;;25.30;14.68;;;;;;;;;;5047460;28;20028;-72
2022/11/30 08:48:36;;;;;;;26.23;15.65;;;;;;;;;;5040928;28;20033;-74
2022/11/30 08:51:03;;;;;;;24.05;14.02;;;;;;;;;;5026610;28;20045;-75
2022/11/30 08:53:30;;;;;;;25.25;14.25;;;;;;;;;;5042474;28;20053;-72
2022/11/30 08:56:01;;;;;;;23.92;14.15;;;;;;;;;;5044685;28;20035;-74
2022/11/30 08:58:35;;;;;;;23.60;14.77;;;;;;;;;;5040716;28;20029;-73
2022/11/30 09:01:22;;;;;;;23.63;14.75;;;;;;;;;;5039496;28;20033;-74
2022/11/30 09:03:51;;;;;;;24.30;14.13;;;;;;;;;;5046341;28;20045;-74
2022/11/30 09:06:19;;;;;;;34.35;16.05;;;;;;;;;;5046119;28;20059;-74
2022/11/30 09:08:47;;;;;;;28.42;17.05;;;;;;;;;;5029381;28;20064;-74
2022/11/30 09:11:18;;;;;;;24.90;14.52;;;;;;;;;;5040796;28;20521;-73
2022/11/30 09:13:45;;;;;;;24.42;15.02;;;;;;;;;;5038964;28;20115;-75
2022/11/30 09:16:12;;;;;;;24.83;15.48;;;;;;;;;;5041008;28;20116;-74
2022/11/30 09:18:38;;;;;;;24.80;16.08;;;;;;;;;;5042703;28;20115;-72
2022/11/30 09:21:10;;;;;;;25.60;15.57;;;;;;;;;;5043623;28;20021;-73
2022/11/30 09:23:36;;;;;;;32.85;18.08;;;;;;;;;;5039664;28;20096;-74
2022/11/30 09:26:06;;;;;;;30.15;17.73;;;;;;;;;;5044781;28;20028;-73
2022/11/30 09:28:32;;;;;;;30.65;17.80;;;;;;;;;;5043998;28;20552;-72
2022/11/30 09:31:05;;;;;;;27.00;15.43;;;;;;;;;;5043219;28;20132;-73
2022/11/30 09:33:32;;;;;;;30.67;19.08;;;;;;;;;;5042368;28;20040;-73
2022/11/30 09:36:02;;;;;;;31.75;19.63;;;;;;;;;;5042145;28;20121;-73
2022/11/30 09:38:28;;;;;;;32.53;18.80;;;;;;;;;;5044537;28;20028;-75
2022/11/30 09:41:05;;;;;;;28.55;17.67;;;;;;;;;;5058155;28;20044;-73
2022/11/30 09:43:49;;;;;;;28.98;17.88;;;;;;;;;;5046627;28;20352;-74
2022/11/30 09:46:15;;;;;;;32.40;20.90;;;;;;;;;;5041589;28;20041;-74
2022/11/30 09:49:02;;;;;;;29.50;17.45;;;;;;;;;;5046062;28;20078;-75
2022/11/30 09:51:51;;;;;;;28.48;16.77;;;;;;;;;;5038705;28;20098;-74
2022/11/30 09:54:34;;;;;;;27.17;16.90;;;;;;;;;;5052774;28;20033;-74
2022/11/30 09:57:41;;;;;;;29.40;17.88;;;;;;;;;;5044171;28;20062;-73
2022/11/30 10:00:20;;;;;;;30.20;18.65;;;;;;;;;;5023793;28;20048;-75
2022/11/30 10:02:52;;;;;;;30.00;18.23;;;;;;;;;;5037622;28;20140;-73
2022/11/30 10:05:37;;;;;;;34.85;19.85;;;;;;;;;;5043973;28;20033;-74
2022/11/30 10:08:15;;;;;;;27.25;17.23;;;;;;;;;;5045329;28;20056;-74
2022/11/30 10:11:27;;;;;;;30.38;18.85;;;;;;;;;;5043678;28;20073;-74
2022/11/30 10:14:18;;;;;;;33.97;20.88;;;;;;;;;;5046290;28;20036;-75
2022/11/30 10:16:54;;;;;;;32.70;18.45;;;;;;;;;;5042981;28;20029;-74
2022/11/30 10:19:41;;;;;;;34.88;19.52;;;;;;;;;;5045768;28;20032;-74
2022/11/30 10:22:21;;;;;;;27.83;16.98;;;;;;;;;;5034809;28;20029;-74
2022/11/30 10:24:51;;;;;;;28.63;16.77;;;;;;;;;;5037550;28;20592;-75
2022/11/30 10:27:26;;;;;;;27.38;16.67;;;;;;;;;;5042761;28;20048;-74
2022/11/30 10:29:54;;;;;;;29.17;17.42;;;;;;;;;;5070301;28;20048;-75
2022/11/30 10:32:28;;;;;;;27.85;16.52;;;;;;;;;;5035726;28;20037;-74
2022/11/30 10:35:00;;;;;;;24.67;15.27;;;;;;;;;;5048198;28;20041;-73
2022/11/30 10:37:26;;;;;;;28.13;15.10;;;;;;;;;;5046901;28;20040;-74
2022/11/30 10:40:22;;;;;;;22.77;14.90;;;;;;;;;;5043748;28;20032;-74
2022/11/30 10:43:07;;;;;;;21.30;13.60;;;;;;;;;;5044113;28;20033;-73
2022/11/30 10:45:39;;;;;;;23.00;14.73;;;;;;;;;;5040221;28;20043;-72
2022/11/30 10:48:13;;;;;;;21.17;13.93;;;;;;;;;;5045810;28;20585;-74
2022/11/30 10:54:11;;;;;;;25.55;14.73;;;;;;;;;;5049071;28;20466;-74
2022/11/30 10:56:37;;;;;;;20.17;13.38;;;;;;;;;;5039517;28;20048;-73
2022/11/30 10:59:44;;;;;;;23.80;14.63;;;;;;;;;;5042407;28;20021;-73
2022/11/30 11:02:32;;;;;;;21.52;13.98;;;;;;;;;;5037163;28;20025;-74
2022/11/30 11:05:18;;;;;;;22.95;15.27;;;;;;;;;;5033512;28;20048;-74
2022/11/30 11:07:49;;;;;;;27.25;16.27;;;;;;;;;;5045638;28;20083;-73
2022/11/30 11:10:22;;;;;;;27.13;17.30;;;;;;;;;;5074313;28;20040;-74
2022/11/30 11:12:51;;;;;;;25.50;16.25;;;;;;;;;;5046004;28;20033;-74
2022/11/30 11:15:29;;;;;;;27.15;16.80;;;;;;;;;;5036952;28;20029;-74
2022/11/30 11:18:21;;;;;;;24.70;15.50;;;;;;;;;;5047381;28;20036;-73
2022/11/30 11:20:47;;;;;;;27.55;16.48;;;;;;;;;;5039111;28;20041;-73
2022/11/30 11:23:32;;;;;;;23.27;15.65;;;;;;;;;;5039103;28;20021;-74
2022/11/30 11:25:59;;;;;;;26.38;15.95;;;;;;;;;;5045116;28;20028;-74
2022/11/30 11:28:25;;;;;;;25.52;15.85;;;;;;;;;;5045855;28;20087;-73
2022/11/30 11:30:54;;;;;;;24.75;16.30;;;;;;;;;;5037786;28;20056;-74
2022/11/30 11:33:28;;;;;;;25.35;16.77;;;;;;;;;;5039353;28;20452;-73
2022/11/30 11:36:05;;;;;;;23.67;15.15;;;;;;;;;;5050316;28;20036;-73
2022/11/30 11:38:44;;;;;;;25.25;16.83;;;;;;;;;;5066846;28;20462;-74
2022/11/30 11:41:32;;;;;;;22.45;15.00;;;;;;;;;;5048987;28;20082;-73
2022/11/30 11:44:08;;;;;;;25.20;16.13;;;;;;;;;;5050088;28;20032;-74
2022/11/30 11:46:58;;;;;;;23.45;15.35;;;;;;;;;;5046360;28;20102;-72
2022/11/30 11:49:35;;;;;;;21.63;14.43;;;;;;;;;;5048667;28;20072;-73
2022/11/30 11:52:10;;;;;;;23.27;13.70;;;;;;;;;;5051331;28;20513;-74
2022/11/30 11:54:39;;;;;;;22.05;14.60;;;;;;;;;;5040796;28;20037;-74
2022/11/30 11:57:15;;;;;;;24.83;15.60;;;;;;;;;;5053554;28;20024;-75
2022/11/30 12:00:04;;;;;;;24.50;14.65;;;;;;;;;;5045775;28;20041;-73
2022/11/30 12:02:36;;;;;;;22.90;14.27;;;;;;;;;;5043738;28;20033;-74
2022/11/30 12:05:11;;;;;;;21.75;13.98;;;;;;;;;;5031412;28;20026;-74
2022/11/30 12:07:52;;;;;;;23.63;14.63;;;;;;;;;;5057134;28;20040;-73
2022/11/30 12:10:45;;;;;;;29.48;18.17;;;;;;;;;;5048061;28;20036;-73
2022/11/30 12:13:15;;;;;;;29.17;18.17;;;;;;;;;;5048853;28;20033;-73
2022/11/30 12:16:03;;;;;;;29.02;16.77;;;;;;;;;;5050839;28;20379;-73
2022/11/30 12:18:34;;;;;;;35.38;19.50;;;;;;;;;;5050786;28;20134;-74
2022/11/30 12:21:10;;;;;;;34.00;19.92;;;;;;;;;;5050899;28;20025;-74
2022/11/30 12:24:01;;;;;;;30.88;19.15;;;;;;;;;;5046325;28;20090;-73
2022/11/30 12:26:43;;;;;;;33.17;19.90;;;;;;;;;;5031393;28;20037;-72
2022/11/30 12:29:33;;;;;;;40.05;21.60;;;;;;;;;;5030705;28;20049;-72
2022/11/30 12:32:02;;;;;;;35.72;20.30;;;;;;;;;;5031705;28;20073;-73
2022/11/30 12:34:52;;;;;;;36.53;21.20;;;;;;;;;;5032776;28;20041;-71
2022/11/30 12:37:35;;;;;;;31.65;20.17;;;;;;;;;;5048695;28;20146;-72
2022/11/30 12:40:19;;;;;;;32.63;18.80;;;;;;;;;;5050017;28;20029;-72
2022/11/30 12:42:59;;;;;;;29.70;18.70;;;;;;;;;;5051375;28;20499;-74
2022/11/30 12:45:36;;;;;;;25.90;15.13;;;;;;;;;;5049495;28;20115;-73
2022/11/30 12:48:27;;;;;;;24.25;14.80;;;;;;;;;;5051208;28;20495;-73
2022/11/30 12:51:20;;;;;;;31.08;18.52;;;;;;;;;;5050998;28;20057;-72
2022/11/30 12:54:07;;;;;;;29.65;17.45;;;;;;;;;;5051227;28;20087;-72
2022/11/30 12:56:38;;;;;;;35.30;21.63;;;;;;;;;;5055315;28;20041;-72
2022/11/30 12:59:13;;;;;;;29.13;17.48;;;;;;;;;;5051945;28;20402;-72
2022/11/30 13:02:00;;;;;;;29.38;18.33;;;;;;;;;;5052011;28;20064;-72
2022/11/30 13:04:37;;;;;;;28.02;17.38;;;;;;;;;;5051468;28;20040;-71
2022/11/30 13:07:24;;;;;;;24.10;15.70;;;;;;;;;;5054781;28;20055;-72
2022/11/30 13:09:55;;;;;;;28.42;16.27;;;;;;;;;;5054492;28;20060;-72
2022/11/30 13:12:35;;;;;;;22.02;14.40;;;;;;;;;;5055063;28;20128;-72
2022/11/30 13:15:21;;;;;;;25.33;15.77;;;;;;;;;;5054860;28;20112;-73
2022/11/30 13:17:48;;;;;;;32.25;19.38;;;;;;;;;;5055095;28;20033;-73
2022/11/30 13:20:42;;;;;;;30.30;17.70;;;;;;;;;;5054856;28;20058;-73
2022/11/30 13:23:19;;;;;;;30.85;18.63;;;;;;;;;;5055057;28;20094;-73
2022/11/30 13:25:56;;;;;;;38.92;21.83;;;;;;;;;;5054793;28;20036;-73
2022/11/30 13:28:41;;;;;;;31.27;20.13;;;;;;;;;;5041804;28;20041;-71
2022/11/30 13:31:24;;;;;;;31.10;18.52;;;;;;;;;;5042296;28;20037;-71
2022/11/30 13:33:57;;;;;;;31.08;18.80;;;;;;;;;;5048635;28;20662;-74
2022/11/30 13:36:37;;;;;;;30.90;19.08;;;;;;;;;;5041244;28;20514;-73
2022/11/30 13:39:22;;;;;;;30.80;19.58;;;;;;;;;;5048615;28;20043;-73
2022/11/30 13:42:13;;;;;;;28.35;18.63;;;;;;;;;;5041693;28;20059;-74
2022/11/30 13:44:41;;;;;;;31.35;20.15;;;;;;;;;;5043196;28;20819;-73
2022/11/30 13:47:25;;;;;;;26.10;17.42;;;;;;;;;;5046486;28;20071;-74
2022/11/30 13:50:00;;;;;;;27.20;17.42;;;;;;;;;;5044613;28;20037;-73
2022/11/30 13:52:57;;;;;;;23.75;15.63;;;;;;;;;;5046079;28;20028;-72
2022/11/30 13:55:46;;;;;;;25.77;17.13;;;;;;;;;;5044201;28;20025;-73
2022/11/30 13:58:16;;;;;;;29.38;18.63;;;;;;;;;;5042489;28;20398;-75
2022/11/30 14:00:47;;;;;;;27.20;17.50;;;;;;;;;;5044630;28;20033;-73
2022/11/30 14:03:19;;;;;;;33.63;24.00;;;;;;;;;;5042529;28;20041;-73
2022/11/30 14:05:46;;;;;;;25.33;16.05;;;;;;;;;;5045660;28;20387;-73
2022/11/30 14:08:22;;;;;;;27.23;16.08;;;;;;;;;;5044480;28;20091;-73
2022/11/30 14:10:53;;;;;;;29.75;17.85;;;;;;;;;;5047718;28;20077;-73
2022/11/30 14:13:21;;;;;;;30.73;16.55;;;;;;;;;;5047267;28;20029;-72
2022/11/30 14:15:47;;;;;;;27.00;15.68;;;;;;;;;;5048731;28;20025;-73
2022/11/30 14:18:20;;;;;;;24.40;15.27;;;;;;;;;;5049509;28;20379;-72
2022/11/30 14:20:52;;;;;;;23.30;13.45;;;;;;;;;;5045330;28;20374;-73
2022/11/30 14:23:39;;;;;;;24.67;15.25;;;;;;;;;;5045652;28;20080;-73
2022/11/30 14:26:12;;;;;;;25.42;15.13;;;;;;;;;;5045916;28;20041;-73
2022/11/30 14:28:41;;;;;;;29.17;17.15;;;;;;;;;;5045626;28;20390;-72
2022/11/30 14:31:13;;;;;;;20.90;13.52;;;;;;;;;;5045811;28;20483;-72
2022/11/30 14:33:56;;;;;;;37.22;23.38;;;;;;;;;;5045887;28;20181;-72
2022/11/30 14:36:26;;;;;;;21.80;14.10;;;;;;;;;;5046057;28;20037;-73
2022/11/30 14:38:52;;;;;;;27.38;16.10;;;;;;;;;;5046968;28;20402;-71
2022/11/30 14:41:24;;;;;;;33.75;20.02;;;;;;;;;;5044493;28;20029;-73
2022/11/30 14:44:19;;;;;;;29.27;18.50;;;;;;;;;;5043363;28;20060;-73
2022/11/30 14:46:45;;;;;;;29.42;17.13;;;;;;;;;;5043545;28;20077;-75
2022/11/30 14:49:13;;;;;;;30.38;17.25;;;;;;;;;;5046557;28;20396;-71
2022/11/30 14:51:52;;;;;;;28.20;17.05;;;;;;;;;;5043818;28;20032;-74
2022/11/30 14:54:46;;;;;;;28.33;18.83;;;;;;;;;;5038781;28;20043;-74